sensor_id;sensor_type;location;lat;lon;timestamp;P1;P4;P2;P0;N10;N4;N25;N1;N05;TS
65057;SPS30;51644;51.068;5.860;2023-09-19T00:00:27;2.40;2.33;1.94;1.38;11.09;11.07;10.97;10.46;8.57;0.74
65057;SPS30;51644;51.068;5.860;2023-09-19T00:01:27;2.86;2.77;2.32;1.67;13.45;13.43;13.31;12.72;10.46;0.74
65057;SPS30;51644;51.068;5.860;2023-09-19T00:02:25;2.00;1.94;1.63;1.18;9.46;9.44;9.36;8.95;7.37;0.74
65057;SPS30;51644;51.068;5.860;2023-09-19T00:03:24;3.05;2.96;2.48;1.79;14.38;14.36;14.23;13.60;11.19;0.74
65057;SPS30;51644;51.068;5.860;2023-09-19T00:04:26;2.57;2.50;2.12;1.56;12.57;12.56;12.46;11.96;9.90;0.72
65057;SPS30;51644;51.068;5.860;2023-09-19T00:05:27;2.70;2.63;2.26;1.72;13.77;13.76;13.66;13.17;10.99;0.71
65057;SPS30;51644;51.068;5.860;2023-09-19T00:06:28;2.57;2.50;2.17;1.66;13.35;13.34;13.25;12.80;10.72;0.69
65057;SPS30;51644;51.068;5.860;2023-09-19T00:07:29;2.41;2.35;2.03;1.55;12.46;12.45;12.36;11.94;9.98;0.69
65057;SPS30;51644;51.068;5.860;2023-09-19T00:08:28;2.39;2.32;1.98;1.48;11.93;11.91;11.82;11.37;9.46;0.71
65057;SPS30;51644;51.068;5.860;2023-09-19T00:09:26;2.37;2.30;1.94;1.42;11.42;11.40;11.31;10.83;8.95;0.72
65057;SPS30;51644;51.068;5.860;2023-09-19T00:10:26;2.62;2.54;2.13;1.53;12.32;12.30;12.19;11.65;9.58;0.74
65057;SPS30;51644;51.068;5.860;2023-09-19T00:11:33;2.16;2.09;1.72;1.21;9.71;9.69;9.60;9.13;7.44;0.75
65057;SPS30;51644;51.068;5.860;2023-09-19T00:12:33;2.41;2.33;1.92;1.35;10.87;10.85;10.75;10.22;8.34;0.76
65057;SPS30;51644;51.068;5.860;2023-09-19T00:13:32;2.38;2.31;1.92;1.36;10.91;10.89;10.79;10.27;8.41;0.75
65057;SPS30;51644;51.068;5.860;2023-09-19T00:14:32;2.49;2.41;2.04;1.49;11.98;11.96;11.86;11.37;9.39;0.73
65057;SPS30;51644;51.068;5.860;2023-09-19T00:15:37;2.13;2.07;1.75;1.29;10.37;10.35;10.27;9.85;8.15;0.73
65057;SPS30;51644;51.068;5.860;2023-09-19T00:16:38;2.67;2.59;2.20;1.61;12.96;12.94;12.84;12.31;10.18;0.74
65057;SPS30;51644;51.068;5.860;2023-09-19T00:17:37;1.79;1.74;1.48;1.10;8.86;8.85;8.78;8.44;7.00;0.74
65057;SPS30;51644;51.068;5.860;2023-09-19T00:18:35;1.74;1.70;1.45;1.09;8.72;8.71;8.64;8.32;6.92;0.74
65057;SPS30;51644;51.068;5.860;2023-09-19T00:19:36;1.97;1.92;1.66;1.26;10.11;10.10;10.03;9.67;8.08;0.72
65057;SPS30;51644;51.068;5.860;2023-09-19T00:20:36;1.95;1.90;1.66;1.27;10.23;10.22;10.15;9.82;8.23;0.71
65057;SPS30;51644;51.068;5.860;2023-09-19T00:21:36;1.63;1.59;1.38;1.07;8.56;8.55;8.49;8.21;6.89;0.72
65057;SPS30;51644;51.068;5.860;2023-09-19T00:22:38;1.90;1.85;1.61;1.24;9.95;9.94;9.88;9.55;8.01;0.71
65057;SPS30;51644;51.068;5.860;2023-09-19T00:23:38;1.55;1.51;1.32;1.04;8.32;8.31;8.26;8.01;6.75;0.70
65057;SPS30;51644;51.068;5.860;2023-09-19T00:24:39;1.70;1.66;1.47;1.16;9.30;9.29;9.24;8.97;7.57;0.69
65057;SPS30;51644;51.068;5.860;2023-09-19T00:25:38;2.25;2.20;1.94;1.53;12.30;12.28;12.21;11.86;10.01;0.69
65057;SPS30;51644;51.068;5.860;2023-09-19T00:26:38;2.23;2.18;1.93;1.54;12.31;12.30;12.23;11.89;10.05;0.70
65057;SPS30;51644;51.068;5.860;2023-09-19T00:27:39;1.99;1.94;1.73;1.38;11.09;11.08;11.02;10.72;9.08;0.70
65057;SPS30;51644;51.068;5.860;2023-09-19T00:28:38;2.21;2.16;1.93;1.56;12.47;12.46;12.39;12.07;10.24;0.70
65057;SPS30;51644;51.068;5.860;2023-09-19T00:29:37;2.34;2.29;2.04;1.64;13.12;13.10;13.04;12.69;10.75;0.71
65057;SPS30;51644;51.068;5.860;2023-09-19T00:30:37;2.03;1.98;1.77;1.41;11.33;11.32;11.26;10.96;9.28;0.71
65057;SPS30;51644;51.068;5.860;2023-09-19T00:31:37;2.24;2.19;1.93;1.53;12.26;12.25;12.18;11.83;9.98;0.72
65057;SPS30;51644;51.068;5.860;2023-09-19T00:32:36;2.39;2.34;2.06;1.63;13.10;13.08;13.01;12.64;10.67;0.71
65057;SPS30;51644;51.068;5.860;2023-09-19T00:33:35;2.35;2.30;2.04;1.62;13.01;13.00;12.93;12.57;10.63;0.70
65057;SPS30;51644;51.068;5.860;2023-09-19T00:34:37;2.28;2.22;1.97;1.56;12.54;12.53;12.46;12.11;10.23;0.71
65057;SPS30;51644;51.068;5.860;2023-09-19T00:35:35;1.91;1.87;1.64;1.29;10.38;10.37;10.31;10.01;8.44;0.71
65057;SPS30;51644;51.068;5.860;2023-09-19T00:36:35;2.22;2.17;1.91;1.50;12.04;12.02;11.95;11.59;9.77;0.71
65057;SPS30;51644;51.068;5.860;2023-09-19T00:37:37;2.46;2.40;2.11;1.65;13.26;13.24;13.16;12.77;10.75;0.72
65057;SPS30;51644;51.068;5.860;2023-09-19T00:38:38;2.43;2.38;2.09;1.63;13.11;13.10;13.02;12.63;10.63;0.71
65057;SPS30;51644;51.068;5.860;2023-09-19T00:39:44;2.04;1.99;1.74;1.36;10.89;10.87;10.81;10.47;8.81;0.70
65057;SPS30;51644;51.068;5.860;2023-09-19T00:40:43;2.43;2.38;2.09;1.63;13.10;13.08;13.00;12.61;10.61;0.70
65057;SPS30;51644;51.068;5.860;2023-09-19T00:41:48;2.55;2.49;2.18;1.70;13.68;13.66;13.58;13.16;11.08;0.70
65057;SPS30;51644;51.068;5.860;2023-09-19T00:42:49;2.33;2.27;2.00;1.57;12.60;12.59;12.52;12.14;10.23;0.70
65057;SPS30;51644;51.068;5.860;2023-09-19T00:43:48;2.20;2.14;1.89;1.49;11.94;11.92;11.86;11.51;9.70;0.69
65057;SPS30;51644;51.068;5.860;2023-09-19T00:44:49;2.03;1.99;1.75;1.37;11.01;11.00;10.94;10.61;8.94;0.70
65057;SPS30;51644;51.068;5.860;2023-09-19T00:45:51;2.74;2.67;2.34;1.82;14.59;14.57;14.48;14.03;11.79;0.71
65057;SPS30;51644;51.068;5.860;2023-09-19T00:46:52;2.47;2.41;2.08;1.58;12.71;12.69;12.61;12.17;10.17;0.72
65057;SPS30;51644;51.068;5.860;2023-09-19T00:47:51;2.47;2.40;2.08;1.59;12.75;12.73;12.64;12.21;10.21;0.72
65057;SPS30;51644;51.068;5.860;2023-09-19T00:48:50;2.10;2.04;1.76;1.34;10.76;10.75;10.67;10.30;8.60;0.73
65057;SPS30;51644;51.068;5.860;2023-09-19T00:49:49;2.04;1.98;1.70;1.27;10.21;10.20;10.12;9.74;8.10;0.74
65057;SPS30;51644;51.068;5.860;2023-09-19T00:50:48;2.50;2.43;2.07;1.53;12.32;12.30;12.21;11.73;9.73;0.74
65057;SPS30;51644;51.068;5.860;2023-09-19T00:51:48;2.03;1.97;1.68;1.25;10.07;10.05;9.98;9.59;7.97;0.73
65057;SPS30;51644;51.068;5.860;2023-09-19T00:52:47;2.18;2.12;1.82;1.36;10.92;10.90;10.82;10.41;8.66;0.72
65057;SPS30;51644;51.068;5.860;2023-09-19T00:53:48;2.42;2.35;2.02;1.52;12.20;12.18;12.09;11.65;9.70;0.72
65057;SPS30;51644;51.068;5.860;2023-09-19T00:54:47;2.53;2.45;2.09;1.56;12.53;12.51;12.42;11.94;9.92;0.72
65057;SPS30;51644;51.068;5.860;2023-09-19T00:55:46;2.35;2.28;1.94;1.44;11.59;11.57;11.48;11.03;9.16;0.72
65057;SPS30;51644;51.068;5.860;2023-09-19T00:56:47;2.84;2.76;2.36;1.76;14.14;14.12;14.01;13.47;11.20;0.71
65057;SPS30;51644;51.068;5.860;2023-09-19T00:57:48;2.24;2.17;1.86;1.39;11.18;11.16;11.08;10.66;8.87;0.72
65057;SPS30;51644;51.068;5.860;2023-09-19T00:58:48;2.55;2.48;2.13;1.60;12.86;12.84;12.75;12.28;10.23;0.72
65057;SPS30;51644;51.068;5.860;2023-09-19T00:59:47;2.46;2.39;2.03;1.50;12.08;12.06;11.97;11.49;9.53;0.73
65057;SPS30;51644;51.068;5.860;2023-09-19T01:00:49;1.88;1.82;1.54;1.13;9.10;9.08;9.01;8.64;7.15;0.74
65057;SPS30;51644;51.068;5.860;2023-09-19T01:01:49;2.58;2.50;2.12;1.56;12.50;12.48;12.38;11.87;9.82;0.74
65057;SPS30;51644;51.068;5.860;2023-09-19T01:02:52;2.55;2.47;2.10;1.55;12.43;12.42;12.32;11.82;9.79;0.74
65057;SPS30;51644;51.068;5.860;2023-09-19T01:03:51;2.28;2.21;1.88;1.38;11.13;11.11;11.03;10.58;8.77;0.73
65057;SPS30;51644;51.068;5.860;2023-09-19T01:04:50;1.87;1.82;1.57;1.19;9.57;9.56;9.50;9.16;7.65;0.70
65057;SPS30;51644;51.068;5.860;2023-09-19T01:05:50;1.53;1.49;1.30;1.00;8.01;8.00;7.95;7.68;6.44;0.70
65057;SPS30;51644;51.068;5.860;2023-09-19T01:06:51;1.50;1.47;1.28;0.98;7.89;7.89;7.83;7.58;6.35;0.70
65057;SPS30;51644;51.068;5.860;2023-09-19T01:07:51;1.90;1.85;1.60;1.23;9.88;9.87;9.80;9.47;7.94;0.71
65057;SPS30;51644;51.068;5.860;2023-09-19T01:08:51;1.75;1.70;1.46;1.11;8.89;8.88;8.81;8.50;7.09;0.72
65057;SPS30;51644;51.068;5.860;2023-09-19T01:09:49;1.90;1.85;1.58;1.17;9.41;9.39;9.32;8.96;7.43;0.73
65057;SPS30;51644;51.068;5.860;2023-09-19T01:10:51;2.64;2.56;2.16;1.58;12.69;12.67;12.56;12.04;9.94;0.74
65057;SPS30;51644;51.068;5.860;2023-09-19T01:11:58;1.74;1.69;1.42;1.03;8.29;8.28;8.21;7.85;6.47;0.74
65057;SPS30;51644;51.068;5.860;2023-09-19T01:13:05;2.63;2.54;2.11;1.50;12.07;12.05;11.94;11.38;9.32;0.75
65057;SPS30;51644;51.068;5.860;2023-09-19T01:14:18;2.13;2.06;1.71;1.21;9.75;9.73;9.64;9.18;7.52;0.76
65057;SPS30;51644;51.068;5.860;2023-09-19T01:15:32;2.33;2.26;1.89;1.35;10.90;10.88;10.78;10.30;8.46;0.75
65057;SPS30;51644;51.068;5.860;2023-09-19T01:16:48;2.12;2.05;1.73;1.25;10.04;10.03;9.94;9.51;7.83;0.75
65057;SPS30;51644;51.068;5.860;2023-09-19T01:18:11;2.30;2.23;1.88;1.37;10.98;10.97;10.88;10.41;8.59;0.74
65057;SPS30;51644;51.068;5.860;2023-09-19T01:21:23;2.00;1.94;1.65;1.22;9.84;9.83;9.75;9.36;7.77;0.73
65057;SPS30;51644;51.068;5.860;2023-09-19T01:29:38;2.08;2.03;1.78;1.39;11.16;11.15;11.08;10.74;9.04;0.69
65057;SPS30;51644;51.068;5.860;2023-09-19T01:30:45;2.20;2.15;1.86;1.42;11.40;11.38;11.30;10.92;9.13;0.71
65057;SPS30;51644;51.068;5.860;2023-09-19T01:31:48;2.60;2.53;2.18;1.65;13.23;13.21;13.11;12.64;10.54;0.70
65057;SPS30;51644;51.068;5.860;2023-09-19T01:32:50;2.40;2.33;2.02;1.54;12.38;12.37;12.28;11.86;9.92;0.69
65057;SPS30;51644;51.068;5.860;2023-09-19T01:33:56;1.71;1.67;1.45;1.11;8.88;8.87;8.81;8.51;7.12;0.69
65057;SPS30;51644;51.068;5.860;2023-09-19T01:34:59;2.21;2.15;1.87;1.45;11.61;11.60;11.53;11.15;9.35;0.69
65057;SPS30;51644;51.068;5.860;2023-09-19T01:36:03;1.93;1.88;1.63;1.24;9.95;9.94;9.87;9.53;7.97;0.71
65057;SPS30;51644;51.068;5.860;2023-09-19T01:37:02;1.73;1.69;1.44;1.08;8.69;8.67;8.61;8.29;6.89;0.70
65057;SPS30;51644;51.068;5.860;2023-09-19T01:38:00;2.08;2.02;1.74;1.32;10.60;10.58;10.51;10.13;8.45;0.69
65057;SPS30;51644;51.068;5.860;2023-09-19T01:38:59;2.10;2.04;1.77;1.35;10.86;10.85;10.78;10.41;8.71;0.69
65057;SPS30;51644;51.068;5.860;2023-09-19T01:40:14;2.52;2.45;2.10;1.57;12.63;12.61;12.51;12.04;10.02;0.71
65057;SPS30;51644;51.068;5.860;2023-09-19T01:41:17;1.89;1.84;1.57;1.17;9.38;9.37;9.30;8.94;7.42;0.71
65057;SPS30;51644;51.068;5.860;2023-09-19T01:43:41;2.62;2.54;2.15;1.57;12.65;12.63;12.53;12.01;9.92;0.72
65057;SPS30;51644;51.068;5.860;2023-09-19T01:44:50;1.93;1.87;1.58;1.16;9.32;9.31;9.23;8.85;7.32;0.71
65057;SPS30;51644;51.068;5.860;2023-09-19T01:46:15;2.13;2.07;1.77;1.31;10.56;10.55;10.47;10.06;8.36;0.71
65057;SPS30;51644;51.068;5.860;2023-09-19T01:49:12;1.76;1.71;1.46;1.09;8.72;8.71;8.64;8.30;6.89;0.72
65057;SPS30;51644;51.068;5.860;2023-09-19T01:52:04;2.07;2.01;1.69;1.23;9.90;9.88;9.80;9.38;7.74;0.74
65057;SPS30;51644;51.068;5.860;2023-09-19T01:53:33;2.03;1.97;1.66;1.21;9.72;9.70;9.62;9.22;7.61;0.74
65057;SPS30;51644;51.068;5.860;2023-09-19T01:54:40;2.14;2.08;1.76;1.29;10.41;10.39;10.31;9.89;8.18;0.75
65057;SPS30;51644;51.068;5.860;2023-09-19T01:55:49;2.65;2.57;2.17;1.60;12.83;12.81;12.71;12.19;10.08;0.74
65057;SPS30;51644;51.068;5.860;2023-09-19T01:57:40;2.39;2.32;1.97;1.45;11.69;11.67;11.58;11.11;9.20;0.73
65057;SPS30;51644;51.068;5.860;2023-09-19T01:58:37;2.02;1.96;1.66;1.23;9.88;9.87;9.79;9.40;7.79;0.73
65057;SPS30;51644;51.068;5.860;2023-09-19T01:59:45;2.44;2.37;2.01;1.48;11.87;11.85;11.76;11.28;9.34;0.73
65057;SPS30;51644;51.068;5.860;2023-09-19T02:00:55;2.24;2.18;1.86;1.39;11.16;11.14;11.06;10.63;8.84;0.70
65057;SPS30;51644;51.068;5.860;2023-09-19T02:01:58;2.05;1.99;1.71;1.29;10.38;10.36;10.29;9.91;8.27;0.70
65057;SPS30;51644;51.068;5.860;2023-09-19T02:03:00;2.01;1.96;1.69;1.30;10.41;10.40;10.33;9.98;8.35;0.70
65057;SPS30;51644;51.068;5.860;2023-09-19T02:04:00;1.85;1.80;1.57;1.20;9.66;9.65;9.58;9.26;7.76;0.71
65057;SPS30;51644;51.068;5.860;2023-09-19T02:04:59;1.68;1.64;1.42;1.09;8.74;8.73;8.67;8.38;7.01;0.72
65057;SPS30;51644;51.068;5.860;2023-09-19T02:06:00;2.17;2.12;1.83;1.39;11.13;11.12;11.04;10.65;8.89;0.72
65057;SPS30;51644;51.068;5.860;2023-09-19T02:06:59;1.95;1.90;1.63;1.23;9.84;9.83;9.76;9.40;7.83;0.72
65057;SPS30;51644;51.068;5.860;2023-09-19T02:07:59;1.96;1.91;1.65;1.25;10.08;10.06;9.99;9.64;8.06;0.71
65057;SPS30;51644;51.068;5.860;2023-09-19T02:08:58;2.39;2.33;2.02;1.54;12.36;12.34;12.26;11.83;9.90;0.70
65057;SPS30;51644;51.068;5.860;2023-09-19T02:09:58;2.69;2.62;2.26;1.72;13.80;13.78;13.69;13.20;11.03;0.70
65057;SPS30;51644;51.068;5.860;2023-09-19T02:11:04;2.48;2.42;2.09;1.60;12.85;12.83;12.75;12.31;10.30;0.70
65057;SPS30;51644;51.068;5.860;2023-09-19T02:12:04;2.66;2.59;2.23;1.68;13.52;13.50;13.40;12.92;10.78;0.71
65057;SPS30;51644;51.068;5.860;2023-09-19T02:13:03;2.03;1.97;1.68;1.25;10.07;10.06;9.98;9.60;7.98;0.71
65057;SPS30;51644;51.068;5.860;2023-09-19T02:14:02;1.79;1.74;1.49;1.11;8.95;8.94;8.87;8.54;7.10;0.70
65057;SPS30;51644;51.068;5.860;2023-09-19T02:15:02;1.86;1.80;1.54;1.14;9.18;9.17;9.10;8.75;7.26;0.71
65057;SPS30;51644;51.068;5.860;2023-09-19T02:16:05;2.24;2.18;1.87;1.41;11.33;11.31;11.23;10.82;9.02;0.69
65057;SPS30;51644;51.068;5.860;2023-09-19T02:17:04;1.99;1.94;1.68;1.29;10.33;10.32;10.25;9.90;8.29;0.68
65057;SPS30;51644;51.068;5.860;2023-09-19T02:18:09;1.75;1.70;1.48;1.14;9.12;9.10;9.04;8.74;7.32;0.68
65057;SPS30;51644;51.068;5.860;2023-09-19T02:19:08;2.33;2.28;1.98;1.53;12.29;12.27;12.20;11.80;9.90;0.68
65057;SPS30;51644;51.068;5.860;2023-09-19T02:20:07;1.80;1.75;1.53;1.19;9.51;9.50;9.44;9.14;7.67;0.67
65057;SPS30;51644;51.068;5.860;2023-09-19T02:21:08;1.55;1.52;1.33;1.04;8.31;8.30;8.25;7.99;6.72;0.66
65057;SPS30;51644;51.068;5.860;2023-09-19T02:22:08;1.66;1.63;1.43;1.12;9.01;9.00;8.95;8.68;7.31;0.66
65057;SPS30;51644;51.068;5.860;2023-09-19T02:23:08;1.73;1.69;1.49;1.19;9.51;9.50;9.45;9.18;7.76;0.66
65057;SPS30;51644;51.068;5.860;2023-09-19T02:24:11;1.60;1.57;1.38;1.09;8.74;8.73;8.68;8.43;7.11;0.67
65057;SPS30;51644;51.068;5.860;2023-09-19T02:25:13;2.03;1.98;1.74;1.36;10.94;10.93;10.87;10.54;8.87;0.68
65057;SPS30;51644;51.068;5.860;2023-09-19T02:26:12;2.10;2.05;1.80;1.41;11.28;11.27;11.20;10.86;9.14;0.68
65057;SPS30;51644;51.068;5.860;2023-09-19T02:27:13;1.58;1.54;1.36;1.06;8.54;8.53;8.48;8.23;6.93;0.68
65057;SPS30;51644;51.068;5.860;2023-09-19T02:28:16;1.64;1.60;1.40;1.10;8.85;8.84;8.79;8.53;7.19;0.68
65057;SPS30;51644;51.068;5.860;2023-09-19T02:29:18;2.10;2.05;1.80;1.42;11.38;11.36;11.30;10.96;9.24;0.69
65057;SPS30;51644;51.068;5.860;2023-09-19T02:30:16;1.58;1.54;1.35;1.06;8.51;8.50;8.45;8.19;6.90;0.69
65057;SPS30;51644;51.068;5.860;2023-09-19T02:31:18;1.56;1.53;1.33;1.04;8.31;8.30;8.24;7.98;6.71;0.69
65057;SPS30;51644;51.068;5.860;2023-09-19T02:32:18;1.68;1.64;1.42;1.10;8.83;8.82;8.76;8.47;7.11;0.70
65057;SPS30;51644;51.068;5.860;2023-09-19T02:33:16;1.41;1.37;1.20;0.92;7.41;7.40;7.35;7.11;5.96;0.69
65057;SPS30;51644;51.068;5.860;2023-09-19T02:34:15;1.87;1.83;1.60;1.25;10.06;10.05;9.99;9.68;8.15;0.69
65057;SPS30;51644;51.068;5.860;2023-09-19T02:35:15;1.83;1.78;1.57;1.23;9.90;9.89;9.83;9.54;8.04;0.69
65057;SPS30;51644;51.068;5.860;2023-09-19T02:36:14;2.36;2.30;2.00;1.55;12.41;12.39;12.31;11.91;10.00;0.71
65057;SPS30;51644;51.068;5.860;2023-09-19T02:37:15;2.08;2.02;1.74;1.32;10.61;10.59;10.52;10.15;8.47;0.71
65057;SPS30;51644;51.068;5.860;2023-09-19T02:38:14;1.84;1.79;1.54;1.16;9.28;9.27;9.20;8.86;7.38;0.71
65057;SPS30;51644;51.068;5.860;2023-09-19T02:39:16;1.71;1.66;1.43;1.07;8.62;8.60;8.54;8.23;6.85;0.72
65057;SPS30;51644;51.068;5.860;2023-09-19T02:40:15;1.93;1.87;1.59;1.17;9.41;9.39;9.32;8.94;7.40;0.73
65057;SPS30;51644;51.068;5.860;2023-09-19T02:41:16;2.10;2.04;1.73;1.28;10.26;10.24;10.16;9.75;8.08;0.73
65057;SPS30;51644;51.068;5.860;2023-09-19T02:42:15;2.09;2.03;1.73;1.28;10.30;10.28;10.20;9.80;8.13;0.73
65057;SPS30;51644;51.068;5.860;2023-09-19T02:43:14;2.92;2.84;2.41;1.78;14.28;14.26;14.14;13.57;11.24;0.72
65057;SPS30;51644;51.068;5.860;2023-09-19T02:44:12;1.98;1.92;1.64;1.21;9.76;9.74;9.67;9.29;7.71;0.72
65057;SPS30;51644;51.068;5.860;2023-09-19T02:45:12;1.75;1.71;1.46;1.10;8.84;8.83;8.76;8.44;7.03;0.72
65057;SPS30;51644;51.068;5.860;2023-09-19T02:46:11;1.90;1.84;1.59;1.20;9.63;9.62;9.55;9.20;7.68;0.72
65057;SPS30;51644;51.068;5.860;2023-09-19T02:47:10;1.97;1.91;1.65;1.25;10.02;10.00;9.93;9.58;7.99;0.71
65057;SPS30;51644;51.068;5.860;2023-09-19T02:48:08;1.76;1.71;1.48;1.14;9.13;9.12;9.06;8.76;7.33;0.71
65057;SPS30;51644;51.068;5.860;2023-09-19T02:49:10;1.76;1.71;1.47;1.11;8.95;8.94;8.88;8.56;7.14;0.73
65057;SPS30;51644;51.068;5.860;2023-09-19T02:50:09;1.66;1.61;1.38;1.04;8.35;8.34;8.28;7.97;6.63;0.73
65057;SPS30;51644;51.068;5.860;2023-09-19T02:51:11;1.57;1.52;1.31;0.99;7.98;7.97;7.92;7.63;6.37;0.73
65057;SPS30;51644;51.068;5.860;2023-09-19T02:52:10;1.64;1.59;1.37;1.04;8.33;8.32;8.26;7.96;6.65;0.72
65057;SPS30;51644;51.068;5.860;2023-09-19T02:53:09;1.91;1.85;1.60;1.21;9.75;9.74;9.67;9.33;7.79;0.72
65057;SPS30;51644;51.068;5.860;2023-09-19T02:54:11;1.98;1.92;1.64;1.23;9.86;9.85;9.78;9.40;7.82;0.74
65057;SPS30;51644;51.068;5.860;2023-09-19T02:55:10;1.73;1.68;1.44;1.07;8.59;8.58;8.52;8.19;6.80;0.74
65057;SPS30;51644;51.068;5.860;2023-09-19T02:56:14;1.68;1.63;1.40;1.05;8.44;8.43;8.37;8.06;6.71;0.73
65057;SPS30;51644;51.068;5.860;2023-09-19T02:57:14;1.96;1.90;1.64;1.24;9.96;9.95;9.88;9.52;7.95;0.72
65057;SPS30;51644;51.068;5.860;2023-09-19T02:58:14;1.33;1.30;1.12;0.86;6.91;6.90;6.86;6.62;5.55;0.71
65057;SPS30;51644;51.068;5.860;2023-09-19T02:59:13;1.19;1.16;1.01;0.77;6.21;6.20;6.16;5.95;4.98;0.72
65057;SPS30;51644;51.068;5.860;2023-09-19T03:00:22;1.76;1.72;1.49;1.14;9.11;9.10;9.04;8.73;7.30;0.71
65057;SPS30;51644;51.068;5.860;2023-09-19T03:01:22;2.15;2.10;1.81;1.37;11.02;11.01;10.93;10.55;8.81;0.72
65057;SPS30;51644;51.068;5.860;2023-09-19T03:02:20;1.69;1.65;1.42;1.08;8.69;8.68;8.62;8.31;6.95;0.71
65057;SPS30;51644;51.068;5.860;2023-09-19T03:03:22;1.92;1.87;1.61;1.23;9.86;9.85;9.78;9.44;7.88;0.72
65057;SPS30;51644;51.068;5.860;2023-09-19T03:04:21;2.13;2.07;1.77;1.33;10.66;10.64;10.57;10.17;8.46;0.72
65057;SPS30;51644;51.068;5.860;2023-09-19T03:05:21;1.93;1.87;1.60;1.20;9.61;9.59;9.52;9.16;7.61;0.72
65057;SPS30;51644;51.068;5.860;2023-09-19T03:06:24;2.16;2.10;1.79;1.33;10.69;10.68;10.60;10.19;8.46;0.72
65057;SPS30;51644;51.068;5.860;2023-09-19T03:07:23;1.65;1.61;1.37;1.02;8.20;8.19;8.13;7.82;6.49;0.72
65057;SPS30;51644;51.068;5.860;2023-09-19T03:08:24;1.37;1.33;1.13;0.84;6.76;6.75;6.70;6.44;5.34;0.73
65057;SPS30;51644;51.068;5.860;2023-09-19T03:09:26;2.02;1.96;1.68;1.25;10.08;10.06;9.99;9.61;7.99;0.72
65057;SPS30;51644;51.068;5.860;2023-09-19T03:10:27;1.95;1.90;1.63;1.22;9.80;9.79;9.72;9.35;7.79;0.73
65057;SPS30;51644;51.068;5.860;2023-09-19T03:11:28;2.09;2.04;1.76;1.33;10.71;10.70;10.62;10.25;8.55;0.71
65057;SPS30;51644;51.068;5.860;2023-09-19T03:12:29;1.44;1.40;1.22;0.94;7.51;7.50;7.45;7.20;6.04;0.71
65057;SPS30;51644;51.068;5.860;2023-09-19T03:13:32;1.62;1.58;1.37;1.06;8.48;8.47;8.42;8.14;6.82;0.71
65057;SPS30;51644;51.068;5.860;2023-09-19T03:14:31;1.74;1.70;1.49;1.16;9.32;9.31;9.26;8.97;7.54;0.70
65057;SPS30;51644;51.068;5.860;2023-09-19T03:15:34;1.75;1.71;1.51;1.19;9.54;9.53;9.48;9.20;7.77;0.69
65057;SPS30;51644;51.068;5.860;2023-09-19T03:16:33;1.56;1.52;1.35;1.07;8.60;8.59;8.54;8.30;7.02;0.69
65057;SPS30;51644;51.068;5.860;2023-09-19T03:17:32;1.54;1.50;1.33;1.05;8.44;8.43;8.39;8.15;6.88;0.69
65057;SPS30;51644;51.068;5.860;2023-09-19T03:18:31;1.94;1.89;1.65;1.29;10.33;10.32;10.26;9.94;8.36;0.70
65057;SPS30;51644;51.068;5.860;2023-09-19T03:19:32;1.79;1.75;1.52;1.18;9.46;9.45;9.39;9.09;7.63;0.71
65057;SPS30;51644;51.068;5.860;2023-09-19T03:20:31;1.94;1.89;1.64;1.25;10.06;10.05;9.98;9.64;8.06;0.70
65057;SPS30;51644;51.068;5.860;2023-09-19T03:21:30;2.23;2.17;1.87;1.41;11.35;11.33;11.25;10.85;9.05;0.71
65057;SPS30;51644;51.068;5.860;2023-09-19T03:22:29;2.44;2.38;2.05;1.56;12.55;12.53;12.45;12.01;10.04;0.70
65057;SPS30;51644;51.068;5.860;2023-09-19T03:23:28;2.57;2.50;2.16;1.64;13.14;13.13;13.04;12.57;10.50;0.70
65057;SPS30;51644;51.068;5.860;2023-09-19T03:24:27;1.70;1.65;1.42;1.07;8.63;8.62;8.56;8.25;6.88;0.70
65057;SPS30;51644;51.068;5.860;2023-09-19T03:25:28;1.63;1.58;1.36;1.02;8.18;8.17;8.11;7.80;6.50;0.71
65057;SPS30;51644;51.068;5.860;2023-09-19T03:26:26;1.82;1.77;1.52;1.14;9.12;9.11;9.04;8.70;7.24;0.71
65057;SPS30;51644;51.068;5.860;2023-09-19T03:27:25;2.44;2.37;2.01;1.49;12.00;11.98;11.88;11.42;9.47;0.72
65057;SPS30;51644;51.068;5.860;2023-09-19T03:28:24;2.29;2.22;1.87;1.35;10.84;10.82;10.73;10.26;8.45;0.74
65057;SPS30;51644;51.068;5.860;2023-09-19T03:29:23;2.86;2.77;2.32;1.67;13.39;13.37;13.25;12.66;10.40;0.74
65057;SPS30;51644;51.068;5.860;2023-09-19T03:30:22;2.42;2.34;1.96;1.40;11.28;11.26;11.16;10.66;8.75;0.74
65057;SPS30;51644;51.068;5.860;2023-09-19T03:31:20;2.40;2.32;1.93;1.36;10.94;10.92;10.82;10.30;8.42;0.76
65057;SPS30;51644;51.068;5.860;2023-09-19T03:32:19;2.46;2.38;1.98;1.40;11.30;11.28;11.17;10.65;8.71;0.75
65057;SPS30;51644;51.068;5.860;2023-09-19T03:33:18;1.78;1.73;1.44;1.02;8.20;8.19;8.11;7.73;6.33;0.75
65057;SPS30;51644;51.068;5.860;2023-09-19T03:34:18;1.66;1.61;1.34;0.96;7.70;7.69;7.62;7.27;5.97;0.75
65057;SPS30;51644;51.068;5.860;2023-09-19T03:35:17;1.66;1.60;1.34;0.96;7.72;7.71;7.64;7.29;5.99;0.74
65057;SPS30;51644;51.068;5.860;2023-09-19T03:36:17;2.50;2.42;2.03;1.46;11.70;11.68;11.58;11.06;9.09;0.75
65057;SPS30;51644;51.068;5.860;2023-09-19T03:37:15;2.76;2.67;2.23;1.59;12.77;12.75;12.63;12.05;9.88;0.75
65057;SPS30;51644;51.068;5.860;2023-09-19T03:38:15;2.00;1.94;1.61;1.13;9.11;9.10;9.01;8.58;7.01;0.76
65057;SPS30;51644;51.068;5.860;2023-09-19T03:39:14;2.29;2.21;1.84;1.29;10.41;10.39;10.29;9.79;8.00;0.76
65057;SPS30;51644;51.068;5.860;2023-09-19T03:40:14;2.89;2.79;2.30;1.61;12.94;12.92;12.79;12.15;9.89;0.77
65057;SPS30;51644;51.068;5.860;2023-09-19T03:41:14;2.59;2.50;2.04;1.40;11.28;11.26;11.14;10.55;8.55;0.77
65057;SPS30;51644;51.068;5.860;2023-09-19T03:42:15;2.14;2.06;1.68;1.14;9.16;9.14;9.04;8.54;6.89;0.78
65057;SPS30;51644;51.068;5.860;2023-09-19T03:43:14;2.35;2.26;1.85;1.26;10.14;10.12;10.01;9.47;7.65;0.77
65057;SPS30;51644;51.068;5.860;2023-09-19T03:44:13;2.45;2.36;1.92;1.30;10.50;10.48;10.36;9.79;7.90;0.77
65057;SPS30;51644;51.068;5.860;2023-09-19T03:45:11;2.24;2.16;1.76;1.21;9.71;9.70;9.59;9.08;7.35;0.76
65057;SPS30;51644;51.068;5.860;2023-09-19T03:46:12;2.49;2.41;1.98;1.37;11.07;11.05;10.94;10.38;8.44;0.74
65057;SPS30;51644;51.068;5.860;2023-09-19T03:47:13;2.84;2.74;2.25;1.56;12.53;12.51;12.38;11.74;9.54;0.74
65057;SPS30;51644;51.068;5.860;2023-09-19T03:48:12;2.46;2.38;1.96;1.37;11.00;10.98;10.87;10.32;8.41;0.73
65057;SPS30;51644;51.068;5.860;2023-09-19T03:49:11;2.08;2.01;1.66;1.17;9.39;9.37;9.28;8.83;7.21;0.74
65057;SPS30;51644;51.068;5.860;2023-09-19T03:50:10;1.78;1.72;1.41;0.98;7.88;7.87;7.79;7.39;6.00;0.74
65057;SPS30;51644;51.068;5.860;2023-09-19T03:51:15;2.82;2.72;2.24;1.55;12.50;12.47;12.35;11.72;9.52;0.74
65057;SPS30;51644;51.068;5.860;2023-09-19T03:52:14;2.13;2.06;1.69;1.18;9.49;9.47;9.37;8.90;7.24;0.74
65057;SPS30;51644;51.068;5.860;2023-09-19T03:53:14;2.20;2.12;1.76;1.23;9.89;9.88;9.78;9.30;7.58;0.73
65057;SPS30;51644;51.068;5.860;2023-09-19T03:54:12;3.25;3.14;2.61;1.85;14.91;14.88;14.74;14.05;11.50;0.74
65057;SPS30;51644;51.068;5.860;2023-09-19T03:55:11;2.60;2.51;2.10;1.50;12.10;12.08;11.98;11.43;9.39;0.73
65057;SPS30;51644;51.068;5.860;2023-09-19T03:56:11;2.23;2.16;1.80;1.29;10.38;10.36;10.27;9.80;8.05;0.74
65057;SPS30;51644;51.068;5.860;2023-09-19T03:57:09;2.68;2.59;2.17;1.55;12.44;12.42;12.31;11.75;9.64;0.75
65057;SPS30;51644;51.068;5.860;2023-09-19T03:58:08;2.46;2.38;1.99;1.41;11.38;11.36;11.26;10.73;8.80;0.75
65057;SPS30;51644;51.068;5.860;2023-09-19T03:59:07;2.33;2.25;1.88;1.34;10.80;10.79;10.69;10.20;8.37;0.74
65057;SPS30;51644;51.068;5.860;2023-09-19T04:00:07;1.55;1.51;1.26;0.91;7.32;7.31;7.24;6.92;5.69;0.74
65057;SPS30;51644;51.068;5.860;2023-09-19T04:01:13;2.50;2.42;2.03;1.46;11.74;11.72;11.62;11.11;9.13;0.74
65057;SPS30;51644;51.068;5.860;2023-09-19T04:02:12;2.32;2.25;1.86;1.31;10.51;10.49;10.39;9.88;8.07;0.76
65057;SPS30;51644;51.068;5.860;2023-09-19T04:03:22;1.61;1.56;1.29;0.90;7.21;7.19;7.12;6.76;5.50;0.77
65057;SPS30;51644;51.068;5.860;2023-09-19T04:04:23;1.91;1.85;1.52;1.06;8.55;8.53;8.45;8.03;6.54;0.77
65057;SPS30;51644;51.068;5.860;2023-09-19T04:05:23;2.82;2.72;2.25;1.58;12.68;12.66;12.53;11.91;9.72;0.77
65057;SPS30;51644;51.068;5.860;2023-09-19T04:06:22;2.23;2.15;1.79;1.27;10.19;10.18;10.08;9.60;7.86;0.76
65057;SPS30;51644;51.068;5.860;2023-09-19T04:07:21;2.18;2.11;1.75;1.24;9.95;9.93;9.84;9.37;7.66;0.76
65057;SPS30;51644;51.068;5.860;2023-09-19T04:08:20;2.73;2.64;2.19;1.55;12.47;12.45;12.33;11.74;9.61;0.77
65057;SPS30;51644;51.068;5.860;2023-09-19T04:09:19;2.43;2.35;1.94;1.35;10.89;10.87;10.77;10.23;8.34;0.79
65057;SPS30;51644;51.068;5.860;2023-09-19T04:10:17;2.68;2.59;2.13;1.47;11.86;11.84;11.72;11.12;9.04;0.79